sensor_id;sensor_type;location;lat;lon;timestamp;temperature;humidity
8002;DHT22;4046;48.774;8.732;2022-07-05T00:01:23;15.90;99.90
8002;DHT22;4046;48.774;8.732;2022-07-05T00:03:49;15.90;99.90
8002;DHT22;4046;48.774;8.732;2022-07-05T00:06:15;16.10;99.90
8002;DHT22;4046;48.774;8.732;2022-07-05T00:08:41;16.20;99.90
8002;DHT22;4046;48.774;8.732;2022-07-05T00:11:07;16.10;99.90
8002;DHT22;4046;48.774;8.732;2022-07-05T00:13:33;16.20;99.90
8002;DHT22;4046;48.774;8.732;2022-07-05T00:15:59;16.20;99.90
8002;DHT22;4046;48.774;8.732;2022-07-05T00:18:25;16.30;99.90
8002;DHT22;4046;48.774;8.732;2022-07-05T00:20:51;16.30;99.90
8002;DHT22;4046;48.774;8.732;2022-07-05T00:23:17;16.40;99.90
8002;DHT22;4046;48.774;8.732;2022-07-05T00:25:43;16.50;99.90
8002;DHT22;4046;48.774;8.732;2022-07-05T00:28:09;16.80;99.90
8002;DHT22;4046;48.774;8.732;2022-07-05T00:30:36;16.40;99.90
8002;DHT22;4046;48.774;8.732;2022-07-05T00:33:02;16.30;99.90
8002;DHT22;4046;48.774;8.732;2022-07-05T00:35:28;16.50;99.90
8002;DHT22;4046;48.774;8.732;2022-07-05T00:37:54;16.50;99.90
8002;DHT22;4046;48.774;8.732;2022-07-05T00:40:19;16.30;99.90
8002;DHT22;4046;48.774;8.732;2022-07-05T00:42:45;16.00;99.90
8002;DHT22;4046;48.774;8.732;2022-07-05T00:45:11;15.70;99.90
8002;DHT22;4046;48.774;8.732;2022-07-05T00:47:37;15.60;99.90
8002;DHT22;4046;48.774;8.732;2022-07-05T00:50:03;15.70;99.90
8002;DHT22;4046;48.774;8.732;2022-07-05T00:52:29;15.80;99.90
8002;DHT22;4046;48.774;8.732;2022-07-05T00:54:54;15.90;99.90
8002;DHT22;4046;48.774;8.732;2022-07-05T00:57:22;15.90;99.90
8002;DHT22;4046;48.774;8.732;2022-07-05T00:59:49;15.80;99.90
8002;DHT22;4046;48.774;8.732;2022-07-05T01:02:15;15.90;99.90
8002;DHT22;4046;48.774;8.732;2022-07-05T01:04:41;16.00;99.90
8002;DHT22;4046;48.774;8.732;2022-07-05T01:07:06;16.20;99.90
8002;DHT22;4046;48.774;8.732;2022-07-05T01:09:34;16.30;99.90
8002;DHT22;4046;48.774;8.732;2022-07-05T01:12:00;16.20;99.90
8002;DHT22;4046;48.774;8.732;2022-07-05T01:14:26;16.30;99.90
8002;DHT22;4046;48.774;8.732;2022-07-05T01:16:53;16.30;99.90
8002;DHT22;4046;48.774;8.732;2022-07-05T01:19:20;16.40;99.90
8002;DHT22;4046;48.774;8.732;2022-07-05T01:21:48;16.40;99.90
8002;DHT22;4046;48.774;8.732;2022-07-05T01:24:17;16.00;99.90
8002;DHT22;4046;48.774;8.732;2022-07-05T01:26:45;15.80;99.90
8002;DHT22;4046;48.774;8.732;2022-07-05T01:29:11;15.80;99.90
8002;DHT22;4046;48.774;8.732;2022-07-05T01:31:41;15.80;99.90
8002;DHT22;4046;48.774;8.732;2022-07-05T01:34:07;15.60;99.90
8002;DHT22;4046;48.774;8.732;2022-07-05T01:36:35;15.50;99.90
8002;DHT22;4046;48.774;8.732;2022-07-05T01:39:05;15.60;99.90
8002;DHT22;4046;48.774;8.732;2022-07-05T01:41:31;15.70;99.90
8002;DHT22;4046;48.774;8.732;2022-07-05T01:43:57;15.50;99.90
8002;DHT22;4046;48.774;8.732;2022-07-05T01:46:24;15.30;99.90
8002;DHT22;4046;48.774;8.732;2022-07-05T01:48:54;15.10;99.90
8002;DHT22;4046;48.774;8.732;2022-07-05T01:51:34;15.10;99.90
8002;DHT22;4046;48.774;8.732;2022-07-05T01:54:03;15.10;99.90
8002;DHT22;4046;48.774;8.732;2022-07-05T01:56:37;15.10;99.90
8002;DHT22;4046;48.774;8.732;2022-07-05T01:59:03;15.10;99.90
8002;DHT22;4046;48.774;8.732;2022-07-05T02:01:37;15.10;99.90
8002;DHT22;4046;48.774;8.732;2022-07-05T02:04:05;15.20;99.90
8002;DHT22;4046;48.774;8.732;2022-07-05T02:06:37;15.20;99.90
8002;DHT22;4046;48.774;8.732;2022-07-05T02:09:05;15.10;99.90
8002;DHT22;4046;48.774;8.732;2022-07-05T02:11:31;15.20;99.90
8002;DHT22;4046;48.774;8.732;2022-07-05T02:13:58;14.90;99.90
8002;DHT22;4046;48.774;8.732;2022-07-05T02:16:25;14.60;99.90
8002;DHT22;4046;48.774;8.732;2022-07-05T02:18:51;14.50;99.90
8002;DHT22;4046;48.774;8.732;2022-07-05T02:21:19;14.40;99.90
8002;DHT22;4046;48.774;8.732;2022-07-05T02:23:45;14.60;99.90
8002;DHT22;4046;48.774;8.732;2022-07-05T02:26:14;14.70;99.90
8002;DHT22;4046;48.774;8.732;2022-07-05T02:28:40;14.70;99.90
8002;DHT22;4046;48.774;8.732;2022-07-05T02:31:06;14.70;99.90
8002;DHT22;4046;48.774;8.732;2022-07-05T02:33:32;14.80;99.90
8002;DHT22;4046;48.774;8.732;2022-07-05T02:36:08;15.00;99.90
8002;DHT22;4046;48.774;8.732;2022-07-05T02:38:37;15.00;99.90
8002;DHT22;4046;48.774;8.732;2022-07-05T02:41:05;14.90;99.90
8002;DHT22;4046;48.774;8.732;2022-07-05T02:43:32;15.00;99.90
8002;DHT22;4046;48.774;8.732;2022-07-05T02:46:01;15.10;99.90
8002;DHT22;4046;48.774;8.732;2022-07-05T02:48:27;15.00;99.90
8002;DHT22;4046;48.774;8.732;2022-07-05T02:50:52;15.00;99.90
8002;DHT22;4046;48.774;8.732;2022-07-05T02:53:18;14.90;99.90
8002;DHT22;4046;48.774;8.732;2022-07-05T02:55:44;14.90;99.90
8002;DHT22;4046;48.774;8.732;2022-07-05T02:58:13;14.80;99.90
8002;DHT22;4046;48.774;8.732;2022-07-05T03:00:39;14.70;99.90
8002;DHT22;4046;48.774;8.732;2022-07-05T03:03:14;14.60;99.90
8002;DHT22;4046;48.774;8.732;2022-07-05T03:05:40;14.50;99.90
8002;DHT22;4046;48.774;8.732;2022-07-05T03:08:06;14.30;99.90
8002;DHT22;4046;48.774;8.732;2022-07-05T03:10:32;14.30;99.90
8002;DHT22;4046;48.774;8.732;2022-07-05T03:12:58;14.10;99.90
8002;DHT22;4046;48.774;8.732;2022-07-05T03:15:24;13.90;99.90
8002;DHT22;4046;48.774;8.732;2022-07-05T03:17:50;13.70;99.90
8002;DHT22;4046;48.774;8.732;2022-07-05T03:20:16;13.70;99.90
8002;DHT22;4046;48.774;8.732;2022-07-05T03:22:41;13.80;99.90
8002;DHT22;4046;48.774;8.732;2022-07-05T03:25:07;13.70;99.90
8002;DHT22;4046;48.774;8.732;2022-07-05T03:27:33;13.50;99.90
8002;DHT22;4046;48.774;8.732;2022-07-05T03:29:59;13.40;99.90
8002;DHT22;4046;48.774;8.732;2022-07-05T03:32:24;13.30;99.90
8002;DHT22;4046;48.774;8.732;2022-07-05T03:34:51;13.50;99.90
8002;DHT22;4046;48.774;8.732;2022-07-05T03:37:17;13.60;99.90
8002;DHT22;4046;48.774;8.732;2022-07-05T03:39:43;13.70;99.90
8002;DHT22;4046;48.774;8.732;2022-07-05T03:42:09;13.90;99.90
8002;DHT22;4046;48.774;8.732;2022-07-05T03:44:35;14.10;99.90
8002;DHT22;4046;48.774;8.732;2022-07-05T03:47:01;14.30;99.90
8002;DHT22;4046;48.774;8.732;2022-07-05T03:49:27;14.30;99.90
8002;DHT22;4046;48.774;8.732;2022-07-05T03:51:53;14.30;99.90
8002;DHT22;4046;48.774;8.732;2022-07-05T03:54:19;14.30;99.90
8002;DHT22;4046;48.774;8.732;2022-07-05T03:56:45;14.30;99.90
8002;DHT22;4046;48.774;8.732;2022-07-05T03:59:11;14.10;99.90
8002;DHT22;4046;48.774;8.732;2022-07-05T04:01:37;14.00;99.90
8002;DHT22;4046;48.774;8.732;2022-07-05T04:04:05;14.10;99.90
8002;DHT22;4046;48.774;8.732;2022-07-05T04:06:31;14.30;99.90
8002;DHT22;4046;48.774;8.732;2022-07-05T04:08:57;14.20;99.90
8002;DHT22;4046;48.774;8.732;2022-07-05T04:11:22;13.90;99.90
8002;DHT22;4046;48.774;8.732;2022-07-05T04:13:48;13.50;99.90
8002;DHT22;4046;48.774;8.732;2022-07-05T04:16:14;13.30;99.90
8002;DHT22;4046;48.774;8.732;2022-07-05T04:18:40;13.30;99.90
8002;DHT22;4046;48.774;8.732;2022-07-05T04:21:06;13.40;99.90
8002;DHT22;4046;48.774;8.732;2022-07-05T04:23:31;13.70;99.90
8002;DHT22;4046;48.774;8.732;2022-07-05T04:25:58;13.80;99.90
8002;DHT22;4046;48.774;8.732;2022-07-05T04:28:25;14.00;99.90
8002;DHT22;4046;48.774;8.732;2022-07-05T04:30:51;13.80;99.90
8002;DHT22;4046;48.774;8.732;2022-07-05T04:33:17;13.70;99.90
8002;DHT22;4046;48.774;8.732;2022-07-05T04:35:43;13.80;99.90
8002;DHT22;4046;48.774;8.732;2022-07-05T04:38:08;13.50;99.90
8002;DHT22;4046;48.774;8.732;2022-07-05T04:40:34;13.30;99.90
8002;DHT22;4046;48.774;8.732;2022-07-05T04:43:00;13.20;99.90
8002;DHT22;4046;48.774;8.732;2022-07-05T04:45:26;13.30;99.90
8002;DHT22;4046;48.774;8.732;2022-07-05T04:47:52;13.30;99.90
8002;DHT22;4046;48.774;8.732;2022-07-05T04:50:18;13.30;99.90
8002;DHT22;4046;48.774;8.732;2022-07-05T04:52:47;13.40;99.90
8002;DHT22;4046;48.774;8.732;2022-07-05T04:55:12;13.40;99.90
8002;DHT22;4046;48.774;8.732;2022-07-05T04:57:39;13.30;99.90
8002;DHT22;4046;48.774;8.732;2022-07-05T05:00:10;13.30;99.90
8002;DHT22;4046;48.774;8.732;2022-07-05T05:02:37;13.40;99.90
8002;DHT22;4046;48.774;8.732;2022-07-05T05:05:03;13.30;99.90
8002;DHT22;4046;48.774;8.732;2022-07-05T05:07:29;13.30;99.90
8002;DHT22;4046;48.774;8.732;2022-07-05T05:09:55;13.50;99.90
8002;DHT22;4046;48.774;8.732;2022-07-05T05:12:21;13.70;99.90
8002;DHT22;4046;48.774;8.732;2022-07-05T05:14:48;13.90;99.90
8002;DHT22;4046;48.774;8.732;2022-07-05T05:17:14;14.20;99.90
8002;DHT22;4046;48.774;8.732;2022-07-05T05:19:40;14.30;99.90
8002;DHT22;4046;48.774;8.732;2022-07-05T05:22:09;14.30;99.90
8002;DHT22;4046;48.774;8.732;2022-07-05T05:24:35;14.40;99.90
8002;DHT22;4046;48.774;8.732;2022-07-05T05:27:01;14.70;99.90
8002;DHT22;4046;48.774;8.732;2022-07-05T05:29:27;14.80;99.90
8002;DHT22;4046;48.774;8.732;2022-07-05T05:31:53;15.00;99.90
8002;DHT22;4046;48.774;8.732;2022-07-05T05:34:19;15.10;99.90
8002;DHT22;4046;48.774;8.732;2022-07-05T05:36:45;15.20;99.90
8002;DHT22;4046;48.774;8.732;2022-07-05T05:39:11;15.10;99.90
8002;DHT22;4046;48.774;8.732;2022-07-05T05:41:37;15.20;99.90
8002;DHT22;4046;48.774;8.732;2022-07-05T05:44:03;15.20;99.90
8002;DHT22;4046;48.774;8.732;2022-07-05T05:46:28;15.20;99.90
8002;DHT22;4046;48.774;8.732;2022-07-05T05:48:54;15.30;99.90
8002;DHT22;4046;48.774;8.732;2022-07-05T05:51:22;15.50;99.90
8002;DHT22;4046;48.774;8.732;2022-07-05T05:53:48;15.70;99.90
8002;DHT22;4046;48.774;8.732;2022-07-05T05:56:14;15.90;99.90
8002;DHT22;4046;48.774;8.732;2022-07-05T05:58:40;16.00;99.90
8002;DHT22;4046;48.774;8.732;2022-07-05T06:01:05;15.70;99.90
8002;DHT22;4046;48.774;8.732;2022-07-05T06:03:31;15.60;99.90
8002;DHT22;4046;48.774;8.732;2022-07-05T06:05:57;15.60;99.90
8002;DHT22;4046;48.774;8.732;2022-07-05T06:08:23;15.80;99.90
8002;DHT22;4046;48.774;8.732;2022-07-05T06:10:49;16.00;99.90
8002;DHT22;4046;48.774;8.732;2022-07-05T06:13:15;16.30;99.90
8002;DHT22;4046;48.774;8.732;2022-07-05T06:15:42;16.40;99.90
8002;DHT22;4046;48.774;8.732;2022-07-05T06:18:09;16.60;99.90
8002;DHT22;4046;48.774;8.732;2022-07-05T06:20:36;16.80;99.90
8002;DHT22;4046;48.774;8.732;2022-07-05T06:23:04;16.90;99.90
8002;DHT22;4046;48.774;8.732;2022-07-05T06:25:31;17.20;99.90
8002;DHT22;4046;48.774;8.732;2022-07-05T06:28:05;17.30;99.90
8002;DHT22;4046;48.774;8.732;2022-07-05T06:30:34;17.50;99.90
8002;DHT22;4046;48.774;8.732;2022-07-05T06:33:00;17.60;99.90
8002;DHT22;4046;48.774;8.732;2022-07-05T06:35:26;17.70;99.90
8002;DHT22;4046;48.774;8.732;2022-07-05T06:40:27;18.00;99.90
8002;DHT22;4046;48.774;8.732;2022-07-05T06:42:55;18.10;99.90
8002;DHT22;4046;48.774;8.732;2022-07-05T06:45:21;18.30;99.90
8002;DHT22;4046;48.774;8.732;2022-07-05T06:48:07;18.40;99.90
8002;DHT22;4046;48.774;8.732;2022-07-05T06:50:36;18.20;99.90
8002;DHT22;4046;48.774;8.732;2022-07-05T06:53:03;17.90;99.90
8002;DHT22;4046;48.774;8.732;2022-07-05T06:55:29;17.90;99.90
8002;DHT22;4046;48.774;8.732;2022-07-05T06:58:04;18.20;99.90
8002;DHT22;4046;48.774;8.732;2022-07-05T07:00:30;18.40;99.90
8002;DHT22;4046;48.774;8.732;2022-07-05T07:02:57;18.60;99.90
8002;DHT22;4046;48.774;8.732;2022-07-05T07:05:23;18.80;99.90
8002;DHT22;4046;48.774;8.732;2022-07-05T07:07:49;19.00;99.90
8002;DHT22;4046;48.774;8.732;2022-07-05T07:10:34;19.20;99.90
8002;DHT22;4046;48.774;8.732;2022-07-05T07:13:03;19.50;99.90
8002;DHT22;4046;48.774;8.732;2022-07-05T07:15:29;19.80;99.90
8002;DHT22;4046;48.774;8.732;2022-07-05T07:17:55;19.90;99.90
8002;DHT22;4046;48.774;8.732;2022-07-05T07:20:21;19.70;99.90
8002;DHT22;4046;48.774;8.732;2022-07-05T07:22:47;19.90;99.90
8002;DHT22;4046;48.774;8.732;2022-07-05T07:25:13;20.10;99.90
8002;DHT22;4046;48.774;8.732;2022-07-05T07:27:44;20.20;99.90
8002;DHT22;4046;48.774;8.732;2022-07-05T07:30:12;20.40;99.90
8002;DHT22;4046;48.774;8.732;2022-07-05T07:32:38;20.50;99.90
8002;DHT22;4046;48.774;8.732;2022-07-05T07:35:05;20.60;99.90
8002;DHT22;4046;48.774;8.732;2022-07-05T07:37:32;20.80;99.90
8002;DHT22;4046;48.774;8.732;2022-07-05T07:39:57;20.90;99.90
8002;DHT22;4046;48.774;8.732;2022-07-05T07:42:24;21.10;99.90
8002;DHT22;4046;48.774;8.732;2022-07-05T07:44:50;21.20;99.90
8002;DHT22;4046;48.774;8.732;2022-07-05T07:47:16;21.40;99.90
8002;DHT22;4046;48.774;8.732;2022-07-05T07:49:42;21.70;99.90
8002;DHT22;4046;48.774;8.732;2022-07-05T07:52:08;21.80;99.90
8002;DHT22;4046;48.774;8.732;2022-07-05T07:54:34;21.90;99.90
8002;DHT22;4046;48.774;8.732;2022-07-05T07:57:00;22.10;99.90
8002;DHT22;4046;48.774;8.732;2022-07-05T07:59:27;22.20;99.90
8002;DHT22;4046;48.774;8.732;2022-07-05T08:01:53;22.20;99.90
8002;DHT22;4046;48.774;8.732;2022-07-05T08:04:19;22.50;99.90
8002;DHT22;4046;48.774;8.732;2022-07-05T08:06:45;22.60;99.90
8002;DHT22;4046;48.774;8.732;2022-07-05T08:09:11;22.90;99.90
8002;DHT22;4046;48.774;8.732;2022-07-05T08:11:38;23.00;99.90
8002;DHT22;4046;48.774;8.732;2022-07-05T08:14:06;23.20;99.90
8002;DHT22;4046;48.774;8.732;2022-07-05T08:16:32;23.30;99.90
8002;DHT22;4046;48.774;8.732;2022-07-05T08:18:59;23.40;99.90
8002;DHT22;4046;48.774;8.732;2022-07-05T08:21:43;23.60;99.90
8002;DHT22;4046;48.774;8.732;2022-07-05T08:24:11;23.70;99.90
8002;DHT22;4046;48.774;8.732;2022-07-05T08:26:38;23.90;99.90
8002;DHT22;4046;48.774;8.732;2022-07-05T08:29:10;24.10;99.90
8002;DHT22;4046;48.774;8.732;2022-07-05T08:31:48;24.20;99.90
8002;DHT22;4046;48.774;8.732;2022-07-05T08:34:14;24.30;99.90
8002;DHT22;4046;48.774;8.732;2022-07-05T08:36:40;24.40;99.90
8002;DHT22;4046;48.774;8.732;2022-07-05T08:39:07;24.60;99.90
8002;DHT22;4046;48.774;8.732;2022-07-05T08:41:36;24.70;99.90
8002;DHT22;4046;48.774;8.732;2022-07-05T08:44:03;25.00;99.90
8002;DHT22;4046;48.774;8.732;2022-07-05T08:46:30;25.20;99.90
8002;DHT22;4046;48.774;8.732;2022-07-05T08:49:02;25.30;99.90
8002;DHT22;4046;48.774;8.732;2022-07-05T08:51:33;25.40;99.90
8002;DHT22;4046;48.774;8.732;2022-07-05T08:54:00;25.60;99.90
8002;DHT22;4046;48.774;8.732;2022-07-05T08:56:25;25.80;99.90
8002;DHT22;4046;48.774;8.732;2022-07-05T08:58:51;25.90;99.90
8002;DHT22;4046;48.774;8.732;2022-07-05T09:01:17;26.10;99.90
8002;DHT22;4046;48.774;8.732;2022-07-05T09:03:51;26.30;99.90
8002;DHT22;4046;48.774;8.732;2022-07-05T09:06:19;26.50;99.90
8002;DHT22;4046;48.774;8.732;2022-07-05T09:08:48;26.70;99.90
8002;DHT22;4046;48.774;8.732;2022-07-05T09:11:16;27.00;99.90
8002;DHT22;4046;48.774;8.732;2022-07-05T09:13:49;27.10;99.90
8002;DHT22;4046;48.774;8.732;2022-07-05T09:16:16;27.50;99.90
8002;DHT22;4046;48.774;8.732;2022-07-05T09:18:48;27.80;99.90
8002;DHT22;4046;48.774;8.732;2022-07-05T09:21:16;28.30;99.90
8002;DHT22;4046;48.774;8.732;2022-07-05T09:23:44;28.80;99.90
8002;DHT22;4046;48.774;8.732;2022-07-05T09:26:13;29.20;99.90
8002;DHT22;4046;48.774;8.732;2022-07-05T09:28:53;29.60;99.90
8002;DHT22;4046;48.774;8.732;2022-07-05T09:31:30;30.00;99.90
8002;DHT22;4046;48.774;8.732;2022-07-05T09:34:10;30.30;99.90
8002;DHT22;4046;48.774;8.732;2022-07-05T09:39:15;31.00;99.90
8002;DHT22;4046;48.774;8.732;2022-07-05T09:41:42;31.30;99.90
8002;DHT22;4046;48.774;8.732;2022-07-05T09:44:10;31.50;99.90
8002;DHT22;4046;48.774;8.732;2022-07-05T09:46:36;31.70;99.90
8002;DHT22;4046;48.774;8.732;2022-07-05T09:49:02;32.00;99.90
8002;DHT22;4046;48.774;8.732;2022-07-05T09:51:28;32.10;99.90
8002;DHT22;4046;48.774;8.732;2022-07-05T09:53:57;32.40;99.90
8002;DHT22;4046;48.774;8.732;2022-07-05T09:56:23;32.60;99.90
8002;DHT22;4046;48.774;8.732;2022-07-05T09:58:52;32.90;99.90
8002;DHT22;4046;48.774;8.732;2022-07-05T10:01:25;32.80;99.90
8002;DHT22;4046;48.774;8.732;2022-07-05T10:03:55;32.80;99.90
8002;DHT22;4046;48.774;8.732;2022-07-05T10:06:26;32.80;99.90
8002;DHT22;4046;48.774;8.732;2022-07-05T10:08:53;33.00;99.90
8002;DHT22;4046;48.774;8.732;2022-07-05T10:11:23;33.10;99.90
8002;DHT22;4046;48.774;8.732;2022-07-05T10:13:53;33.20;99.90
8002;DHT22;4046;48.774;8.732;2022-07-05T10:16:21;33.40;99.90
8002;DHT22;4046;48.774;8.732;2022-07-05T10:18:54;33.50;99.90
8002;DHT22;4046;48.774;8.732;2022-07-05T10:21:23;33.50;99.90
8002;DHT22;4046;48.774;8.732;2022-07-05T10:23:52;33.40;99.90
8002;DHT22;4046;48.774;8.732;2022-07-05T10:26:22;33.40;99.90
8002;DHT22;4046;48.774;8.732;2022-07-05T10:28:53;33.40;99.90
8002;DHT22;4046;48.774;8.732;2022-07-05T10:31:19;33.40;99.90
8002;DHT22;4046;48.774;8.732;2022-07-05T10:33:45;33.40;99.90
8002;DHT22;4046;48.774;8.732;2022-07-05T10:36:12;33.10;99.90
8002;DHT22;4046;48.774;8.732;2022-07-05T10:38:40;33.10;99.90
8002;DHT22;4046;48.774;8.732;2022-07-05T10:41:09;33.20;99.90
8002;DHT22;4046;48.774;8.732;2022-07-05T10:43:36;33.30;99.90
8002;DHT22;4046;48.774;8.732;2022-07-05T10:46:02;33.60;99.90
8002;DHT22;4046;48.774;8.732;2022-07-05T10:48:33;33.40;99.90
8002;DHT22;4046;48.774;8.732;2022-07-05T10:51:01;33.40;99.90
8002;DHT22;4046;48.774;8.732;2022-07-05T10:56:21;33.70;99.90
8002;DHT22;4046;48.774;8.732;2022-07-05T10:58:48;34.00;99.90
8002;DHT22;4046;48.774;8.732;2022-07-05T11:03:49;34.30;99.90
8002;DHT22;4046;48.774;8.732;2022-07-05T11:06:25;34.20;99.90
8002;DHT22;4046;48.774;8.732;2022-07-05T11:11:28;34.20;99.90
8002;DHT22;4046;48.774;8.732;2022-07-05T11:13:55;34.20;99.90
8002;DHT22;4046;48.774;8.732;2022-07-05T11:16:36;34.30;99.90
8002;DHT22;4046;48.774;8.732;2022-07-05T11:21:33;34.40;99.90
8002;DHT22;4046;48.774;8.732;2022-07-05T11:26:51;34.10;99.90
8002;DHT22;4046;48.774;8.732;2022-07-05T11:32:08;34.20;99.90
8002;DHT22;4046;48.774;8.732;2022-07-05T11:34:38;34.50;99.90
8002;DHT22;4046;48.774;8.732;2022-07-05T11:37:22;34.60;99.90
8002;DHT22;4046;48.774;8.732;2022-07-05T11:42:37;34.80;99.90
8002;DHT22;4046;48.774;8.732;2022-07-05T11:45:06;34.40;99.90
8002;DHT22;4046;48.774;8.732;2022-07-05T11:47:34;34.40;99.90
8002;DHT22;4046;48.774;8.732;2022-07-05T11:50:01;34.20;99.90
8002;DHT22;4046;48.774;8.732;2022-07-05T11:52:29;34.30;99.90
8002;DHT22;4046;48.774;8.732;2022-07-05T11:54:56;34.40;99.90
8002;DHT22;4046;48.774;8.732;2022-07-05T11:57:22;34.60;99.90
8002;DHT22;4046;48.774;8.732;2022-07-05T11:59:49;34.80;99.90
8002;DHT22;4046;48.774;8.732;2022-07-05T12:02:15;34.70;99.90
8002;DHT22;4046;48.774;8.732;2022-07-05T12:04:47;34.70;99.90
8002;DHT22;4046;48.774;8.732;2022-07-05T12:07:27;34.60;99.90
8002;DHT22;4046;48.774;8.732;2022-07-05T12:09:53;34.40;99.90
8002;DHT22;4046;48.774;8.732;2022-07-05T12:12:38;34.50;99.90
8002;DHT22;4046;48.774;8.732;2022-07-05T12:15:11;34.20;99.90
8002;DHT22;4046;48.774;8.732;2022-07-05T12:17:38;34.20;99.90
8002;DHT22;4046;48.774;8.732;2022-07-05T12:20:06;34.00;99.90
8002;DHT22;4046;48.774;8.732;2022-07-05T12:22:42;34.10;99.90
8002;DHT22;4046;48.774;8.732;2022-07-05T12:25:15;34.30;99.90
8002;DHT22;4046;48.774;8.732;2022-07-05T12:27:43;34.50;99.90
8002;DHT22;4046;48.774;8.732;2022-07-05T12:30:10;34.50;99.90
8002;DHT22;4046;48.774;8.732;2022-07-05T12:35:47;34.60;99.90
8002;DHT22;4046;48.774;8.732;2022-07-05T12:38:14;34.80;99.90
8002;DHT22;4046;48.774;8.732;2022-07-05T12:40:42;34.50;99.90
8002;DHT22;4046;48.774;8.732;2022-07-05T12:43:13;34.10;99.90
8002;DHT22;4046;48.774;8.732;2022-07-05T12:46:00;34.00;99.90
8002;DHT22;4046;48.774;8.732;2022-07-05T12:48:34;34.20;99.90
8002;DHT22;4046;48.774;8.732;2022-07-05T12:51:01;34.50;99.90
8002;DHT22;4046;48.774;8.732;2022-07-05T12:53:27;34.40;99.90
8002;DHT22;4046;48.774;8.732;2022-07-05T12:56:13;33.90;99.90
8002;DHT22;4046;48.774;8.732;2022-07-05T13:04:14;34.10;99.90
8002;DHT22;4046;48.774;8.732;2022-07-05T13:07:00;34.20;99.90
8002;DHT22;4046;48.774;8.732;2022-07-05T13:14:31;34.70;99.90
8002;DHT22;4046;48.774;8.732;2022-07-05T13:16:56;34.50;99.90
8002;DHT22;4046;48.774;8.732;2022-07-05T13:19:22;34.50;99.90
8002;DHT22;4046;48.774;8.732;2022-07-05T13:21:48;34.50;99.90
8002;DHT22;4046;48.774;8.732;2022-07-05T13:24:14;34.30;99.90
8002;DHT22;4046;48.774;8.732;2022-07-05T13:26:40;34.50;99.90
8002;DHT22;4046;48.774;8.732;2022-07-05T13:29:06;34.50;99.90
8002;DHT22;4046;48.774;8.732;2022-07-05T13:31:32;34.60;99.90
8002;DHT22;4046;48.774;8.732;2022-07-05T13:33:59;34.70;99.90
8002;DHT22;4046;48.774;8.732;2022-07-05T13:36:26;33.50;99.90
8002;DHT22;4046;48.774;8.732;2022-07-05T13:38:58;31.60;99.90
8002;DHT22;4046;48.774;8.732;2022-07-05T13:41:25;31.20;99.90
8002;DHT22;4046;48.774;8.732;2022-07-05T13:43:51;31.30;99.90
8002;DHT22;4046;48.774;8.732;2022-07-05T13:46:17;31.50;99.90
8002;DHT22;4046;48.774;8.732;2022-07-05T13:48:43;31.50;99.90
8002;DHT22;4046;48.774;8.732;2022-07-05T13:51:09;31.50;99.90
8002;DHT22;4046;48.774;8.732;2022-07-05T13:53:38;31.30;99.90
8002;DHT22;4046;48.774;8.732;2022-07-05T13:56:05;31.30;99.90
8002;DHT22;4046;48.774;8.732;2022-07-05T13:58:34;31.30;99.90
8002;DHT22;4046;48.774;8.732;2022-07-05T14:01:01;31.00;99.90
8002;DHT22;4046;48.774;8.732;2022-07-05T14:03:29;30.90;99.90
8002;DHT22;4046;48.774;8.732;2022-07-05T14:05:55;31.00;99.90
8002;DHT22;4046;48.774;8.732;2022-07-05T14:08:21;31.10;99.90
8002;DHT22;4046;48.774;8.732;2022-07-05T14:10:52;31.10;99.90
8002;DHT22;4046;48.774;8.732;2022-07-05T14:13:19;31.10;99.90
8002;DHT22;4046;48.774;8.732;2022-07-05T14:15:47;31.10;99.90
8002;DHT22;4046;48.774;8.732;2022-07-05T14:18:18;31.20;99.90
8002;DHT22;4046;48.774;8.732;2022-07-05T14:20:44;31.20;99.90
8002;DHT22;4046;48.774;8.732;2022-07-05T14:23:12;31.00;99.90
8002;DHT22;4046;48.774;8.732;2022-07-05T14:25:38;30.90;99.90
8002;DHT22;4046;48.774;8.732;2022-07-05T14:28:04;30.90;99.90
8002;DHT22;4046;48.774;8.732;2022-07-05T14:30:34;30.90;99.90
8002;DHT22;4046;48.774;8.732;2022-07-05T14:33:00;30.70;99.90
8002;DHT22;4046;48.774;8.732;2022-07-05T14:35:26;30.80;99.90
8002;DHT22;4046;48.774;8.732;2022-07-05T14:37:52;30.70;99.90
8002;DHT22;4046;48.774;8.732;2022-07-05T14:40:18;30.50;99.90
8002;DHT22;4046;48.774;8.732;2022-07-05T14:42:45;30.60;99.90
8002;DHT22;4046;48.774;8.732;2022-07-05T14:45:11;30.60;99.90
8002;DHT22;4046;48.774;8.732;2022-07-05T14:47:37;30.40;99.90
8002;DHT22;4046;48.774;8.732;2022-07-05T14:50:03;30.20;99.90
8002;DHT22;4046;48.774;8.732;2022-07-05T14:52:29;30.10;99.90
8002;DHT22;4046;48.774;8.732;2022-07-05T14:54:56;30.00;99.90
8002;DHT22;4046;48.774;8.732;2022-07-05T14:57:22;29.90;99.90
8002;DHT22;4046;48.774;8.732;2022-07-05T14:59:48;29.90;99.90
8002;DHT22;4046;48.774;8.732;2022-07-05T15:02:14;29.80;99.90
8002;DHT22;4046;48.774;8.732;2022-07-05T15:04:41;29.80;99.90
8002;DHT22;4046;48.774;8.732;2022-07-05T15:07:07;29.40;99.90
8002;DHT22;4046;48.774;8.732;2022-07-05T15:09:33;29.40;99.90
8002;DHT22;4046;48.774;8.732;2022-07-05T15:12:01;29.30;99.90
8002;DHT22;4046;48.774;8.732;2022-07-05T15:14:26;29.40;99.90
8002;DHT22;4046;48.774;8.732;2022-07-05T15:16:55;29.40;99.90
8002;DHT22;4046;48.774;8.732;2022-07-05T15:19:22;29.30;99.90
8002;DHT22;4046;48.774;8.732;2022-07-05T15:21:48;29.10;99.90
8002;DHT22;4046;48.774;8.732;2022-07-05T15:24:15;29.10;99.90
8002;DHT22;4046;48.774;8.732;2022-07-05T15:26:41;29.00;99.90
8002;DHT22;4046;48.774;8.732;2022-07-05T15:29:08;28.90;99.90
8002;DHT22;4046;48.774;8.732;2022-07-05T15:31:35;28.80;99.90
8002;DHT22;4046;48.774;8.732;2022-07-05T15:34:03;28.70;99.90
8002;DHT22;4046;48.774;8.732;2022-07-05T15:36:29;28.60;99.90
8002;DHT22;4046;48.774;8.732;2022-07-05T15:38:59;28.50;99.90
8002;DHT22;4046;48.774;8.732;2022-07-05T15:41:29;28.40;99.90
8002;DHT22;4046;48.774;8.732;2022-07-05T15:43:56;28.30;99.90
8002;DHT22;4046;48.774;8.732;2022-07-05T15:46:22;28.30;99.90
8002;DHT22;4046;48.774;8.732;2022-07-05T15:48:48;28.50;99.90
8002;DHT22;4046;48.774;8.732;2022-07-05T15:51:17;28.60;99.90
8002;DHT22;4046;48.774;8.732;2022-07-05T15:53:45;28.70;99.90
8002;DHT22;4046;48.774;8.732;2022-07-05T15:56:11;28.70;99.90
8002;DHT22;4046;48.774;8.732;2022-07-05T15:58:37;28.70;99.90
8002;DHT22;4046;48.774;8.732;2022-07-05T16:01:05;28.60;99.90
8002;DHT22;4046;48.774;8.732;2022-07-05T16:03:31;28.60;99.90
8002;DHT22;4046;48.774;8.732;2022-07-05T16:06:03;28.60;99.90
8002;DHT22;4046;48.774;8.732;2022-07-05T16:08:29;28.50;99.90
8002;DHT22;4046;48.774;8.732;2022-07-05T16:10:55;28.40;99.90
8002;DHT22;4046;48.774;8.732;2022-07-05T16:13:24;28.40;99.90
8002;DHT22;4046;48.774;8.732;2022-07-05T16:15:50;28.30;99.90
8002;DHT22;4046;48.774;8.732;2022-07-05T16:18:34;28.40;99.90
8002;DHT22;4046;48.774;8.732;2022-07-05T16:21:04;28.40;99.90
8002;DHT22;4046;48.774;8.732;2022-07-05T16:23:31;28.40;99.90
8002;DHT22;4046;48.774;8.732;2022-07-05T16:25:58;28.30;99.90
8002;DHT22;4046;48.774;8.732;2022-07-05T16:28:29;28.30;99.90
8002;DHT22;4046;48.774;8.732;2022-07-05T16:31:08;28.00;99.90
8002;DHT22;4046;48.774;8.732;2022-07-05T16:33:41;27.90;99.90
8002;DHT22;4046;48.774;8.732;2022-07-05T16:36:17;27.80;99.90
8002;DHT22;4046;48.774;8.732;2022-07-05T16:38:44;27.80;99.90
8002;DHT22;4046;48.774;8.732;2022-07-05T16:41:11;27.70;99.90
8002;DHT22;4046;48.774;8.732;2022-07-05T16:43:38;27.70;99.90